createdAt,value
2019-06-26T00:00:45.931Z,51.50
2019-06-26T00:03:15.590Z,51.27
2019-06-26T00:05:45.440Z,52.66
2019-06-26T00:08:17.260Z,49.33
2019-06-26T00:10:46.561Z,51.87
2019-06-26T00:13:25.647Z,53.19
2019-06-26T00:15:47.585Z,48.39
2019-06-26T00:18:17.178Z,52.62
2019-06-26T00:20:49.670Z,52.42
2019-06-26T00:23:19.337Z,49.15
2019-06-26T00:25:50.225Z,52.32
2019-06-26T00:28:21.298Z,49.20
2019-06-26T00:30:50.893Z,52.24
2019-06-26T00:33:20.594Z,49.91
2019-06-26T00:35:50.209Z,46.92
2019-06-26T00:38:19.813Z,45.30
2019-06-26T00:40:50.883Z,45.53
2019-06-26T00:43:20.605Z,45.03
2019-06-26T00:45:50.208Z,45.55
2019-06-26T00:48:19.806Z,45.32
2019-06-26T00:50:49.478Z,45.43
2019-06-26T00:53:19.066Z,45.84
2019-06-26T00:55:48.671Z,46.61
2019-06-26T00:58:18.259Z,47.00
2019-06-26T01:00:52.614Z,45.64
2019-06-26T01:03:22.215Z,45.56
2019-06-26T01:05:51.828Z,45.77
2019-06-26T01:08:21.418Z,45.26
2019-06-26T01:10:51.007Z,45.17
2019-06-26T01:13:20.632Z,45.06
2019-06-26T01:15:50.281Z,44.89
2019-06-26T01:18:19.889Z,44.69
2019-06-26T01:20:49.504Z,44.97
2019-06-26T01:23:19.158Z,45.33
2019-06-26T01:25:48.830Z,44.91
2019-06-26T01:28:18.496Z,44.97
2019-06-26T01:30:48.166Z,45.22
2019-06-26T01:33:17.807Z,46.00
2019-06-26T01:35:47.410Z,46.87
2019-06-26T01:38:16.999Z,45.95
2019-06-26T01:40:46.673Z,44.86
2019-06-26T01:43:16.365Z,44.48
2019-06-26T01:45:45.982Z,44.07
2019-06-26T01:48:15.834Z,44.01
2019-06-26T01:50:45.442Z,44.01
2019-06-26T01:53:15.018Z,43.91
2019-06-26T01:55:44.817Z,44.23
2019-06-26T01:58:14.457Z,43.99
2019-06-26T02:00:44.243Z,44.46
2019-06-26T02:03:13.855Z,44.15
2019-06-26T02:05:43.579Z,44.09
2019-06-26T02:08:13.274Z,43.93
2019-06-26T02:10:43.736Z,44.43
2019-06-26T02:13:13.334Z,44.30
2019-06-26T02:15:44.533Z,44.22
2019-06-26T02:18:22.505Z,44.29
2019-06-26T02:20:53.365Z,44.13
2019-06-26T02:23:22.966Z,44.12
2019-06-26T02:25:52.561Z,44.29
2019-06-26T02:28:22.154Z,51.61
2019-06-26T02:30:51.786Z,55.14
2019-06-26T02:33:21.364Z,49.78
2019-06-26T02:35:50.974Z,47.26
2019-06-26T02:38:20.585Z,46.46
2019-06-26T02:40:51.485Z,45.86
2019-06-26T02:43:21.035Z,45.81
2019-06-26T02:45:50.700Z,52.43
2019-06-26T02:48:20.381Z,55.29
2019-06-26T02:50:50.298Z,50.75
2019-06-26T02:53:19.901Z,48.25
2019-06-26T02:55:49.511Z,52.41
2019-06-26T02:58:19.101Z,56.92
2019-06-26T03:00:48.704Z,58.51
2019-06-26T03:03:18.506Z,59.99
2019-06-26T03:05:48.086Z,61.58
2019-06-26T03:08:17.751Z,57.32
2019-06-26T03:10:47.340Z,61.06
2019-06-26T03:13:16.950Z,61.18
2019-06-26T03:15:50.203Z,58.98
2019-06-26T03:18:17.839Z,60.77
2019-06-26T03:20:50.335Z,55.63
2019-06-26T03:23:19.959Z,59.49
2019-06-26T03:25:52.319Z,60.90
2019-06-26T03:28:21.919Z,54.53
2019-06-26T03:30:51.511Z,58.50
2019-06-26T03:33:21.105Z,59.80
2019-06-26T03:35:50.803Z,54.29
2019-06-26T03:38:20.341Z,57.69
2019-06-26T03:40:50.026Z,56.27
2019-06-26T03:43:19.610Z,55.24
2019-06-26T03:45:49.233Z,57.07
2019-06-26T03:48:18.872Z,53.25
2019-06-26T03:50:48.472Z,55.58
2019-06-26T03:53:18.072Z,56.47
2019-06-26T03:55:47.663Z,51.78
2019-06-26T03:58:17.272Z,55.38
2019-06-26T04:00:47.180Z,53.73
2019-06-26T04:03:16.718Z,53.18
2019-06-26T04:05:46.397Z,54.93
2019-06-26T04:08:15.989Z,51.22
2019-06-26T04:10:45.581Z,53.62
2019-06-26T04:13:15.194Z,53.89
2019-06-26T04:15:45.796Z,49.64
2019-06-26T04:18:15.545Z,53.84
2019-06-26T04:20:45.142Z,50.31
2019-06-26T04:23:14.745Z,52.89
2019-06-26T04:25:44.469Z,52.47
2019-06-26T04:28:14.065Z,50.23
2019-06-26T04:30:43.651Z,53.59
2019-06-26T04:33:13.254Z,49.06
2019-06-26T04:35:42.856Z,53.30
2019-06-26T04:38:12.504Z,50.63
2019-06-26T04:40:42.353Z,52.53
2019-06-26T04:43:11.932Z,52.62
2019-06-26T04:45:54.141Z,49.17
2019-06-26T04:48:12.888Z,53.12
2019-06-26T04:50:42.583Z,50.06
2019-06-26T04:53:12.237Z,52.11
2019-06-26T04:55:41.830Z,52.42
2019-06-26T04:58:11.492Z,49.95
2019-06-26T05:00:41.098Z,53.10
2019-06-26T05:03:10.681Z,50.22
2019-06-26T05:05:40.373Z,51.90
2019-06-26T05:08:09.966Z,53.19
2019-06-26T05:10:39.560Z,49.53
2019-06-26T05:13:09.405Z,53.37
2019-06-26T05:15:39.008Z,49.18
2019-06-26T05:18:08.890Z,52.77
2019-06-26T05:20:38.498Z,50.64
2019-06-26T05:23:08.092Z,51.70
2019-06-26T05:25:37.721Z,53.23
2019-06-26T05:28:08.467Z,48.09
2019-06-26T05:30:38.370Z,53.21
2019-06-26T05:33:09.309Z,50.60
2019-06-26T05:35:38.912Z,52.49
2019-06-26T05:38:08.545Z,53.12
2019-06-26T05:40:38.139Z,48.49
2019-06-26T05:43:07.731Z,53.39
2019-06-26T05:45:37.324Z,50.23
2019-06-26T05:48:06.970Z,51.08
2019-06-26T05:50:36.688Z,53.31
2019-06-26T05:53:06.327Z,48.41
2019-06-26T05:55:36.025Z,53.44
2019-06-26T05:58:05.698Z,49.91
2019-06-26T06:00:35.373Z,50.87
2019-06-26T06:03:04.979Z,53.61
2019-06-26T06:05:34.638Z,48.17
2019-06-26T06:08:04.214Z,53.04
2019-06-26T06:10:33.820Z,52.40
2019-06-26T06:13:03.488Z,47.62
2019-06-26T06:15:33.184Z,53.33
2019-06-26T06:18:02.865Z,51.53
2019-06-26T06:20:38.347Z,47.88
2019-06-26T06:23:08.957Z,53.64
2019-06-26T06:25:38.757Z,51.83
2019-06-26T06:28:08.355Z,47.70
2019-06-26T06:30:37.936Z,49.78
2019-06-26T06:33:07.624Z,54.28
2019-06-26T06:35:37.236Z,49.20
2019-06-26T06:38:06.802Z,46.90
2019-06-26T06:40:36.409Z,53.30
2019-06-26T06:43:05.993Z,49.91
2019-06-26T06:45:35.601Z,47.21
2019-06-26T06:48:05.550Z,52.40
2019-06-26T06:50:35.158Z,51.77
2019-06-26T06:53:04.830Z,47.53
2019-06-26T06:55:35.422Z,49.30
2019-06-26T06:58:05.166Z,53.38
2019-06-26T07:00:34.825Z,48.21
2019-06-26T07:03:04.537Z,45.89
2019-06-26T07:05:34.195Z,51.85
2019-06-26T07:08:03.810Z,49.89
2019-06-26T07:10:33.466Z,45.87
2019-06-26T07:13:03.041Z,50.38
2019-06-26T07:15:32.638Z,50.59
2019-06-26T07:18:02.225Z,46.42
2019-06-26T07:20:31.892Z,44.89
2019-06-26T07:23:01.530Z,51.58
2019-06-26T07:25:31.095Z,48.83
2019-06-26T07:28:02.037Z,45.63
2019-06-26T07:30:32.019Z,45.10
2019-06-26T07:33:01.696Z,51.95
2019-06-26T07:35:31.377Z,47.86
2019-06-26T07:38:01.072Z,45.14
2019-06-26T07:40:30.679Z,44.40
2019-06-26T07:43:00.303Z,50.22
2019-06-26T07:45:29.942Z,50.50
2019-06-26T07:47:59.615Z,46.05
2019-06-26T07:50:32.342Z,44.58
2019-06-26T07:53:00.515Z,49.65
2019-06-26T07:55:30.111Z,50.62
2019-06-26T07:57:59.701Z,46.09
2019-06-26T08:00:31.724Z,44.29
2019-06-26T08:03:04.073Z,47.52
2019-06-26T08:05:32.075Z,51.88
2019-06-26T08:08:01.736Z,46.40
2019-06-26T08:10:31.409Z,44.53
2019-06-26T08:13:01.096Z,43.77
2019-06-26T08:15:30.686Z,50.46
2019-06-26T08:18:01.637Z,48.59
2019-06-26T08:20:31.669Z,45.21
2019-06-26T08:23:01.288Z,44.31
2019-06-26T08:25:30.896Z,43.75
2019-06-26T08:28:00.477Z,43.44
2019-06-26T08:30:30.078Z,43.18
2019-06-26T08:32:59.975Z,49.94
2019-06-26T08:35:29.655Z,49.54
2019-06-26T08:38:09.989Z,45.73
2019-06-26T08:40:32.154Z,44.43
2019-06-26T08:43:01.835Z,43.82
2019-06-26T08:45:31.414Z,50.25
2019-06-26T08:48:16.925Z,49.70
2019-06-26T08:50:32.275Z,45.73
2019-06-26T08:53:01.893Z,44.63
2019-06-26T08:55:32.486Z,44.08
2019-06-26T08:58:02.160Z,49.33
2019-06-26T09:00:32.240Z,49.91
2019-06-26T09:03:01.893Z,46.08
2019-06-26T09:05:46.761Z,44.86
2019-06-26T09:08:02.852Z,44.05
2019-06-26T09:10:32.558Z,50.71
2019-06-26T09:13:03.251Z,49.42
2019-06-26T09:15:32.933Z,45.97
2019-06-26T09:18:02.515Z,44.71
2019-06-26T09:20:42.689Z,44.36
2019-06-26T09:23:12.483Z,51.67
2019-06-26T09:25:42.111Z,48.92
2019-06-26T09:28:11.713Z,46.10
2019-06-26T09:30:41.298Z,48.88
2019-06-26T09:33:10.906Z,52.79
2019-06-26T09:35:40.539Z,47.78
2019-06-26T09:38:10.177Z,45.89
2019-06-26T09:40:39.852Z,51.81
2019-06-26T09:43:09.436Z,51.41
2019-06-26T09:45:39.123Z,47.67
2019-06-26T09:48:08.876Z,48.83
2019-06-26T09:50:38.546Z,53.97
2019-06-26T09:53:09.260Z,49.47
2019-06-26T09:55:38.941Z,46.85
2019-06-26T09:58:08.543Z,49.71
2019-06-26T10:00:38.353Z,53.73
2019-06-26T10:03:07.943Z,48.80
2019-06-26T10:05:37.612Z,46.91
2019-06-26T10:08:07.214Z,49.49
2019-06-26T10:10:38.024Z,53.78
2019-06-26T10:13:07.625Z,48.91
2019-06-26T10:15:37.259Z,47.08
2019-06-26T10:18:06.893Z,53.34
2019-06-26T10:20:36.593Z,51.37
2019-06-26T10:23:06.194Z,48.42
2019-06-26T10:25:35.801Z,46.98
2019-06-26T10:28:05.552Z,53.31
2019-06-26T10:30:35.140Z,51.80
2019-06-26T10:33:04.822Z,48.69
2019-06-26T10:35:34.414Z,49.46
2019-06-26T10:38:05.169Z,55.33
2019-06-26T10:40:34.854Z,51.17
2019-06-26T10:43:04.549Z,48.54
2019-06-26T10:45:36.250Z,51.82
2019-06-26T10:48:05.809Z,55.06
2019-06-26T10:50:47.540Z,50.12
2019-06-26T10:53:06.786Z,48.15
2019-06-26T10:55:36.408Z,53.75
2019-06-26T10:58:06.080Z,52.88
2019-06-26T11:00:36.093Z,49.73
2019-06-26T11:03:05.671Z,49.03
2019-06-26T11:05:35.255Z,54.87
2019-06-26T11:08:05.450Z,51.33
2019-06-26T11:10:35.108Z,48.88
2019-06-26T11:13:05.079Z,47.96
2019-06-26T11:15:34.670Z,54.54
2019-06-26T11:18:04.321Z,51.95
2019-06-26T11:20:34.004Z,48.59
2019-06-26T11:23:03.668Z,48.28
2019-06-26T11:25:33.283Z,54.64
2019-06-26T11:28:03.000Z,51.33
2019-06-26T11:30:33.650Z,49.24
2019-06-26T11:33:03.352Z,48.99
2019-06-26T11:35:33.010Z,47.34
2019-06-26T11:38:02.625Z,53.25
2019-06-26T11:40:33.808Z,52.81
2019-06-26T11:43:03.494Z,48.90
2019-06-26T11:45:33.125Z,52.69
2019-06-26T11:48:02.718Z,53.67
2019-06-26T11:50:32.388Z,49.68
2019-06-26T11:53:05.102Z,53.25
2019-06-26T11:55:34.786Z,55.54
2019-06-26T11:58:04.493Z,50.29
2019-06-26T12:00:34.154Z,49.36
2019-06-26T12:03:05.539Z,49.40
2019-06-26T12:05:35.136Z,47.78
2019-06-26T12:08:05.822Z,47.11
2019-06-26T12:10:35.713Z,46.34
2019-06-26T12:13:05.405Z,53.32
2019-06-26T12:15:35.020Z,51.78
2019-06-26T12:18:05.783Z,48.35
2019-06-26T12:20:36.931Z,46.95
2019-06-26T12:23:06.702Z,54.24
2019-06-26T12:25:36.323Z,51.53
2019-06-26T12:28:06.360Z,48.53
2019-06-26T12:30:35.967Z,47.87
2019-06-26T12:33:05.866Z,54.35
2019-06-26T12:35:35.566Z,50.72
2019-06-26T12:38:05.221Z,48.03
2019-06-26T12:40:37.094Z,47.43
2019-06-26T12:43:06.788Z,54.59
2019-06-26T12:45:36.443Z,50.72
2019-06-26T12:48:06.055Z,47.80
2019-06-26T12:50:36.314Z,50.81
2019-06-26T12:53:06.347Z,54.88
2019-06-26T12:55:36.898Z,50.12
2019-06-26T12:58:13.865Z,47.92
2019-06-26T13:00:39.472Z,50.63
2019-06-26T13:03:09.161Z,54.70
2019-06-26T13:05:38.827Z,50.00
2019-06-26T13:08:09.596Z,47.85
2019-06-26T13:10:49.515Z,50.87
2019-06-26T13:13:12.680Z,54.98
2019-06-26T13:15:42.107Z,50.26
2019-06-26T13:18:11.707Z,48.00
2019-06-26T13:20:52.154Z,46.91
2019-06-26T13:23:14.865Z,54.42
2019-06-26T13:25:44.301Z,51.54
2019-06-26T13:28:13.804Z,48.38
2019-06-26T13:30:43.501Z,47.34
2019-06-26T13:33:13.086Z,49.03
2019-06-26T13:35:42.747Z,54.81
2019-06-26T13:38:15.462Z,50.54
2019-06-26T13:40:47.424Z,48.21
2019-06-26T13:43:17.417Z,53.42
2019-06-26T13:45:46.981Z,56.79
2019-06-26T13:48:16.667Z,58.96
2019-06-26T13:50:46.459Z,60.39
2019-06-26T13:53:17.653Z,57.82
2019-06-26T13:55:47.474Z,59.48
2019-06-26T13:58:19.310Z,61.01
2019-06-26T14:00:48.995Z,61.74
2019-06-26T14:03:20.033Z,59.28
2019-06-26T14:05:49.717Z,57.16
2019-06-26T14:08:19.377Z,55.67
2019-06-26T15:12:28.056Z,54.58
2019-06-26T17:11:13.357Z,54.23
2019-06-26T17:13:43.643Z,52.38
2019-06-26T17:16:14.823Z,51.72
2019-06-26T17:18:45.788Z,51.35
2019-06-26T17:21:15.629Z,51.13
2019-06-26T17:23:45.998Z,50.50
2019-06-26T17:26:15.805Z,50.36
2019-06-26T17:28:45.906Z,50.25
2019-06-26T17:31:15.866Z,50.44
2019-06-26T17:33:46.105Z,50.33
2019-06-26T17:36:16.085Z,49.83
2019-06-26T17:38:46.207Z,49.53
2019-06-26T17:41:16.418Z,48.60
2019-06-26T17:43:46.733Z,48.11
2019-06-26T17:46:17.250Z,47.95
2019-06-26T17:48:47.195Z,47.68
2019-06-26T17:51:17.897Z,47.77
2019-06-26T17:53:47.757Z,47.61
2019-06-26T17:56:17.789Z,47.49
2019-06-26T17:58:47.758Z,47.39
2019-06-26T18:01:17.785Z,46.87
2019-06-26T18:03:49.017Z,46.19
2019-06-26T18:06:19.237Z,46.12
2019-06-26T18:08:49.247Z,46.21
2019-06-26T18:11:19.637Z,46.26
2019-06-26T18:13:49.586Z,46.05
2019-06-26T18:16:19.477Z,45.92
2019-06-26T18:18:49.865Z,46.19
2019-06-26T18:21:20.125Z,46.49
2019-06-26T18:23:49.997Z,46.42
2019-06-26T18:26:20.108Z,46.50
2019-06-26T18:28:49.965Z,46.46
2019-06-26T18:31:20.097Z,46.37
2019-06-26T18:33:50.006Z,46.32
2019-06-26T18:36:19.949Z,46.08
2019-06-26T18:38:49.967Z,45.60
2019-06-26T18:41:19.896Z,45.41
2019-06-26T18:43:50.429Z,45.25
2019-06-26T18:46:20.397Z,44.99
2019-06-26T18:48:50.936Z,44.99
2019-06-26T18:51:21.045Z,45.14
2019-06-26T18:53:53.919Z,45.40
2019-06-26T18:56:24.447Z,45.66
2019-06-26T18:58:54.897Z,45.67
2019-06-26T19:01:25.041Z,45.81
2019-06-26T19:03:55.385Z,45.57
2019-06-26T19:06:25.365Z,45.66
2019-06-26T19:08:55.620Z,45.65
2019-06-26T19:11:25.465Z,45.44
2019-06-26T19:13:55.485Z,45.10
2019-06-26T19:16:25.317Z,45.02
2019-06-26T19:18:55.490Z,44.61
2019-06-26T19:21:25.292Z,44.63
2019-06-26T19:24:09.175Z,44.56
2019-06-26T19:26:27.265Z,44.57
2019-06-26T19:28:57.465Z,44.47
2019-06-26T19:31:27.537Z,44.44
2019-06-26T19:33:57.362Z,44.38
2019-06-26T19:36:28.859Z,44.40
2019-06-26T19:38:59.582Z,44.34
2019-06-26T19:41:29.957Z,44.36
2019-06-26T19:44:01.059Z,44.22
2019-06-26T19:46:31.117Z,44.18
2019-06-26T19:49:01.305Z,44.31
2019-06-26T19:51:31.419Z,44.40
2019-06-26T19:54:01.575Z,44.41
2019-06-26T19:56:31.704Z,44.67
2019-06-26T19:59:01.539Z,44.72
2019-06-26T20:01:31.596Z,44.98
2019-06-26T20:04:01.499Z,45.12
2019-06-26T20:06:31.465Z,45.30
2019-06-26T20:09:01.829Z,45.44
2019-06-26T20:11:33.127Z,45.63
2019-06-26T20:14:03.202Z,45.57
2019-06-26T20:16:33.224Z,45.72
2019-06-26T20:19:03.115Z,45.73
2019-06-26T20:21:34.428Z,45.69
2019-06-26T20:24:05.677Z,45.78
2019-06-26T20:26:35.506Z,45.74
2019-06-26T20:29:05.345Z,46.03
2019-06-26T20:31:35.257Z,46.01
2019-06-26T20:34:05.297Z,46.07
2019-06-26T20:36:35.377Z,46.02
2019-06-26T20:39:05.967Z,46.08
2019-06-26T20:41:36.055Z,46.31
2019-06-26T20:44:05.989Z,46.31
2019-06-26T20:46:36.038Z,46.42
2019-06-26T20:49:05.987Z,46.56
2019-06-26T20:51:36.187Z,46.60
2019-06-26T20:54:06.407Z,46.67
2019-06-26T20:56:36.507Z,46.80
2019-06-26T20:59:06.427Z,46.88
2019-06-26T21:01:36.438Z,47.01
2019-06-26T21:04:06.595Z,47.14
2019-06-26T21:06:36.646Z,47.27
2019-06-26T21:09:07.407Z,47.31
2019-06-26T21:11:37.655Z,47.43
2019-06-26T21:14:07.475Z,47.50
2019-06-26T21:16:37.493Z,47.52
2019-06-26T21:19:07.537Z,47.54
2019-06-26T21:21:37.690Z,47.68
2019-06-26T21:24:07.668Z,47.88
2019-06-26T21:26:37.586Z,47.95
2019-06-26T21:29:07.456Z,48.00
2019-06-26T21:31:37.404Z,48.15
2019-06-26T21:34:07.354Z,48.29
2019-06-26T21:36:37.277Z,48.48
2019-06-26T21:39:07.915Z,48.57
2019-06-26T21:41:37.994Z,48.66
2019-06-26T21:44:08.061Z,48.71
2019-06-26T21:46:37.909Z,48.82
2019-06-26T21:49:09.026Z,48.91
2019-06-26T21:51:38.988Z,48.93
2019-06-26T21:54:09.135Z,49.10
2019-06-26T21:56:56.783Z,49.33
2019-06-26T21:59:44.985Z,49.51
2019-06-26T22:02:32.923Z,49.61
2019-06-26T22:05:05.248Z,49.71
2019-06-26T22:07:53.027Z,49.87
2019-06-26T22:10:24.619Z,50.04
2019-06-26T22:12:54.667Z,50.27
2019-06-26T22:15:24.642Z,50.32
2019-06-26T22:17:54.967Z,50.32
2019-06-26T22:20:25.083Z,50.55
2019-06-26T22:22:55.268Z,50.66
2019-06-26T22:25:25.327Z,50.71
2019-06-26T22:27:55.321Z,50.79
2019-06-26T22:30:25.439Z,50.90
2019-06-26T22:32:55.465Z,51.00
2019-06-26T22:35:25.606Z,51.21
2019-06-26T22:37:55.726Z,51.19
2019-06-26T22:40:25.786Z,51.37
2019-06-26T22:42:56.118Z,51.34
2019-06-26T22:45:26.138Z,51.40
2019-06-26T22:47:55.962Z,51.38
2019-06-26T22:50:26.107Z,51.34
2019-06-26T22:52:55.999Z,51.41
2019-06-26T22:55:26.096Z,51.49
2019-06-26T22:57:56.023Z,51.49
2019-06-26T23:00:26.030Z,51.52
2019-06-26T23:02:56.067Z,51.57
2019-06-26T23:05:26.261Z,51.67
2019-06-26T23:07:56.250Z,51.71
2019-06-26T23:10:26.408Z,51.69
2019-06-26T23:12:56.567Z,51.83
2019-06-26T23:15:26.767Z,51.90
2019-06-26T23:17:57.081Z,51.80
2019-06-26T23:20:26.901Z,51.82
2019-06-26T23:22:57.011Z,51.91
2019-06-26T23:25:27.040Z,51.95
2019-06-26T23:27:57.187Z,51.99
2019-06-26T23:30:27.248Z,52.02
2019-06-26T23:32:57.162Z,52.04
2019-06-26T23:35:27.718Z,52.18
2019-06-26T23:37:57.649Z,52.23
2019-06-26T23:40:27.627Z,52.29
2019-06-26T23:42:57.448Z,52.27
2019-06-26T23:45:27.428Z,52.38
2019-06-26T23:47:57.248Z,52.42
2019-06-26T23:50:27.208Z,52.55
2019-06-26T23:52:57.132Z,52.62
2019-06-26T23:55:27.039Z,52.67
2019-06-26T23:57:59.429Z,52.75
